createdAt,value
2023-05-10T00:00:18.383Z,0
2023-05-10T00:01:34.665Z,0
2023-05-10T00:02:49.998Z,0
2023-05-10T00:04:05.301Z,0
2023-05-10T00:06:37.892Z,0
2023-05-10T00:07:54.189Z,0
2023-05-10T00:09:10.478Z,0
2023-05-10T00:10:26.776Z,0
2023-05-10T00:11:43.066Z,0
2023-05-10T00:12:59.364Z,0
2023-05-10T00:14:15.661Z,0
2023-05-10T00:15:31.945Z,0
2023-05-10T00:16:48.250Z,0
2023-05-10T00:18:04.545Z,0
2023-05-10T00:19:20.829Z,0
2023-05-10T00:21:52.433Z,0
2023-05-10T00:23:07.742Z,0
2023-05-10T00:24:23.064Z,0
2023-05-10T00:25:39.354Z,0
2023-05-10T00:26:55.647Z,0
2023-05-10T00:28:11.943Z,0
2023-05-10T00:29:28.238Z,0
2023-05-10T00:30:44.530Z,0
2023-05-10T00:32:00.825Z,0
2023-05-10T00:33:17.120Z,0
2023-05-10T00:34:33.404Z,0
2023-05-10T00:35:48.729Z,0
2023-05-10T00:37:04.047Z,0
2023-05-10T00:38:20.325Z,0
2023-05-10T00:39:36.619Z,0
2023-05-10T00:40:52.921Z,0
2023-05-10T00:42:09.213Z,0
2023-05-10T00:43:25.499Z,0
2023-05-10T00:44:41.798Z,0
2023-05-10T00:45:58.108Z,0
2023-05-10T00:47:14.386Z,0
2023-05-10T00:48:29.713Z,0
2023-05-10T00:49:45.018Z,0
2023-05-10T00:51:01.314Z,0
2023-05-10T00:52:17.603Z,0
2023-05-10T00:53:33.910Z,0
2023-05-10T00:54:50.197Z,0
2023-05-10T00:56:06.478Z,0
2023-05-10T00:57:22.789Z,0
2023-05-10T00:59:55.369Z,0
2023-05-10T01:01:11.668Z,0
2023-05-10T01:02:27.956Z,0
2023-05-10T01:03:44.263Z,0
2023-05-10T01:05:00.553Z,0
2023-05-10T01:06:15.859Z,0
2023-05-10T01:07:32.149Z,0
2023-05-10T01:08:47.462Z,0
2023-05-10T01:10:03.769Z,0
2023-05-10T01:11:20.062Z,0
2023-05-10T01:12:36.345Z,0
2023-05-10T01:13:52.653Z,0
2023-05-10T01:15:08.928Z,0
2023-05-10T01:16:25.238Z,0
2023-05-10T01:17:41.533Z,0
2023-05-10T01:18:57.827Z,0
2023-05-10T01:20:14.116Z,0
2023-05-10T01:21:30.400Z,0
2023-05-10T01:22:46.706Z,0
2023-05-10T01:24:03.003Z,0
2023-05-10T01:25:18.307Z,0
2023-05-10T01:26:34.602Z,0
2023-05-10T01:27:50.890Z,0
2023-05-10T01:29:07.192Z,0
2023-05-10T01:30:23.477Z,0
2023-05-10T01:31:39.785Z,0
2023-05-10T01:32:56.064Z,0
2023-05-10T01:34:12.370Z,0
2023-05-10T01:35:28.661Z,0
2023-05-10T01:36:44.960Z,0
2023-05-10T01:38:01.249Z,0
2023-05-10T01:39:17.549Z,0
2023-05-10T01:40:33.833Z,0
2023-05-10T01:41:49.155Z,0
2023-05-10T01:43:05.439Z,0
2023-05-10T01:45:38.038Z,0
2023-05-10T01:46:54.326Z,0
2023-05-10T01:48:10.625Z,0
2023-05-10T01:49:26.922Z,0
2023-05-10T01:50:43.202Z,0
2023-05-10T01:51:59.506Z,0
2023-05-10T01:53:15.799Z,0
2023-05-10T01:54:32.086Z,0
2023-05-10T01:55:48.385Z,0
2023-05-10T01:57:04.667Z,0
2023-05-10T01:58:19.979Z,0
2023-05-10T01:59:36.289Z,0
2023-05-10T02:00:52.568Z,0
2023-05-10T02:02:08.873Z,0
2023-05-10T02:03:25.166Z,0
2023-05-10T02:04:41.456Z,0
2023-05-10T02:05:57.744Z,0
2023-05-10T02:08:30.331Z,0
2023-05-10T02:09:46.640Z,0
2023-05-10T02:11:02.935Z,0
2023-05-10T02:12:19.218Z,0
2023-05-10T02:13:35.524Z,0
2023-05-10T02:16:07.117Z,0
2023-05-10T02:18:39.712Z,0
2023-05-10T02:19:55.018Z,0
2023-05-10T02:21:10.344Z,0
2023-05-10T02:23:42.928Z,0
2023-05-10T02:24:59.215Z,0
2023-05-10T02:26:15.506Z,0
2023-05-10T02:27:31.797Z,0
2023-05-10T02:28:48.095Z,0
2023-05-10T02:31:20.689Z,0
2023-05-10T02:32:36.981Z,0
2023-05-10T02:33:53.267Z,0
2023-05-10T02:35:08.550Z,1
2023-05-10T02:36:23.858Z,0
2023-05-10T02:37:40.149Z,0
2023-05-10T02:38:56.447Z,0
2023-05-10T02:40:12.741Z,0
2023-05-10T02:41:28.977Z,1
2023-05-10T02:42:45.234Z,1
2023-05-10T02:44:01.527Z,0
2023-05-10T02:46:34.057Z,2
2023-05-10T02:47:50.297Z,1
2023-05-10T02:49:06.552Z,1
2023-05-10T02:50:22.789Z,1
2023-05-10T02:51:39.035Z,2
2023-05-10T02:54:10.533Z,1
2023-05-10T02:55:26.775Z,2
2023-05-10T02:56:43.010Z,2
2023-05-10T02:57:59.256Z,2
2023-05-10T02:59:15.493Z,7
2023-05-10T03:00:31.743Z,4
2023-05-10T03:01:47.969Z,7
2023-05-10T03:03:04.211Z,6
2023-05-10T03:04:20.475Z,8
2023-05-10T03:05:36.702Z,10
2023-05-10T03:06:52.941Z,12
2023-05-10T03:08:09.171Z,15
2023-05-10T03:09:25.420Z,18
2023-05-10T03:10:40.673Z,22
2023-05-10T03:11:56.904Z,26
2023-05-10T03:13:12.168Z,31
2023-05-10T03:14:27.429Z,34
2023-05-10T03:16:59.913Z,42
2023-05-10T03:18:16.146Z,47
2023-05-10T03:19:32.386Z,52
2023-05-10T03:20:48.639Z,58
2023-05-10T03:22:04.868Z,63
2023-05-10T03:24:37.349Z,102
2023-05-10T03:25:53.589Z,119
2023-05-10T03:27:09.828Z,142
2023-05-10T03:28:26.221Z,163
2023-05-10T03:29:42.465Z,182
2023-05-10T03:30:57.703Z,204
2023-05-10T03:32:13.944Z,217
2023-05-10T03:33:30.181Z,206
2023-05-10T03:34:46.432Z,150
2023-05-10T03:36:02.663Z,188
2023-05-10T03:37:18.903Z,228
2023-05-10T03:39:51.383Z,312
2023-05-10T03:41:07.625Z,323
2023-05-10T03:42:23.874Z,387
2023-05-10T03:43:40.111Z,441
2023-05-10T03:44:56.361Z,455
2023-05-10T03:46:12.598Z,495
2023-05-10T03:47:28.837Z,558
2023-05-10T03:48:44.080Z,643
2023-05-10T03:50:00.326Z,743
2023-05-10T03:51:16.569Z,805
2023-05-10T03:52:32.819Z,784
2023-05-10T03:53:49.056Z,1011
2023-05-10T03:55:05.299Z,1142
2023-05-10T03:56:20.561Z,971
2023-05-10T03:57:35.803Z,907
2023-05-10T03:58:52.042Z,1279
2023-05-10T04:00:08.292Z,1155
2023-05-10T04:02:40.769Z,2927
2023-05-10T04:03:57.006Z,3065
2023-05-10T04:05:13.243Z,1691
2023-05-10T04:06:29.496Z,2459
2023-05-10T04:07:45.722Z,7306
2023-05-10T04:10:18.203Z,7334
2023-05-10T04:11:33.461Z,7397
2023-05-10T04:12:48.728Z,5994
2023-05-10T04:14:04.960Z,5984
2023-05-10T04:15:21.196Z,6087
2023-05-10T04:16:37.443Z,5591
2023-05-10T04:17:53.682Z,4137
2023-05-10T04:19:09.915Z,2834
2023-05-10T04:21:42.405Z,2073
2023-05-10T04:22:58.633Z,2093
2023-05-10T04:24:14.879Z,2112
2023-05-10T04:25:31.130Z,2133
2023-05-10T04:26:47.367Z,2162
2023-05-10T04:28:03.610Z,2183
2023-05-10T04:29:18.851Z,2222
2023-05-10T04:30:35.090Z,2240
2023-05-10T04:31:51.344Z,2254
2023-05-10T04:33:07.585Z,2277
2023-05-10T04:34:23.824Z,2294
2023-05-10T04:35:40.053Z,2324
2023-05-10T04:36:56.302Z,2355
2023-05-10T04:38:11.551Z,2374
2023-05-10T04:39:26.822Z,2403
2023-05-10T04:40:43.051Z,2433
2023-05-10T04:41:59.290Z,2453
2023-05-10T04:43:15.546Z,2477
2023-05-10T04:44:31.774Z,2502
2023-05-10T04:45:48.021Z,2516
2023-05-10T04:47:04.257Z,2537
2023-05-10T04:48:20.496Z,2559
2023-05-10T04:49:36.726Z,2587
2023-05-10T04:50:52.001Z,2607
2023-05-10T04:52:07.257Z,2634
2023-05-10T04:53:23.494Z,2662
2023-05-10T04:54:39.743Z,2679
2023-05-10T04:55:55.982Z,2698
2023-05-10T04:57:12.220Z,2712
2023-05-10T04:58:28.454Z,2726
2023-05-10T04:59:44.686Z,2734
2023-05-10T05:01:00.933Z,2744
2023-05-10T05:02:17.165Z,2753
2023-05-10T05:03:33.405Z,2755
2023-05-10T05:04:49.660Z,2759
2023-05-10T05:06:05.887Z,2774
2023-05-10T05:07:22.138Z,2795
2023-05-10T05:08:38.363Z,2811
2023-05-10T05:11:09.865Z,2831
2023-05-10T05:12:26.099Z,2839
2023-05-10T05:13:42.353Z,2860
2023-05-10T05:14:58.583Z,2888
2023-05-10T05:16:14.820Z,2915
2023-05-10T05:18:47.300Z,2999
2023-05-10T05:20:03.545Z,3060
2023-05-10T05:21:19.794Z,3121
2023-05-10T05:22:36.026Z,3159
2023-05-10T05:23:51.289Z,3194
2023-05-10T05:26:23.778Z,3261
2023-05-10T05:27:39.043Z,3301
2023-05-10T05:28:54.288Z,3329
2023-05-10T05:30:10.524Z,3378
2023-05-10T05:31:26.773Z,3406
2023-05-10T05:32:42.999Z,3462
2023-05-10T05:33:59.249Z,3498
2023-05-10T05:35:15.483Z,3516
2023-05-10T05:36:31.727Z,3588
2023-05-10T05:37:47.971Z,3635
2023-05-10T05:39:04.212Z,3690
2023-05-10T05:41:35.716Z,3813
2023-05-10T05:42:50.975Z,3852
2023-05-10T05:44:07.211Z,3914
2023-05-10T05:45:23.441Z,3975
2023-05-10T05:46:39.679Z,4024
2023-05-10T05:47:55.929Z,4122
2023-05-10T05:49:12.179Z,4154
2023-05-10T05:50:28.393Z,4190
2023-05-10T05:51:44.643Z,4250
2023-05-10T05:53:00.890Z,4264
2023-05-10T05:54:16.156Z,4364
2023-05-10T05:55:31.403Z,4444
2023-05-10T05:56:47.641Z,4570
2023-05-10T05:58:03.875Z,4579
2023-05-10T05:59:20.127Z,4627
2023-05-10T06:00:36.361Z,4662
2023-05-10T06:01:52.596Z,4705
2023-05-10T06:04:25.084Z,4801
2023-05-10T06:05:41.323Z,4857
2023-05-10T06:06:57.569Z,4864
2023-05-10T06:08:13.807Z,4970
2023-05-10T06:09:30.042Z,4967
2023-05-10T06:10:46.275Z,4934
2023-05-10T06:12:02.514Z,5024
2023-05-10T06:13:17.780Z,5173
2023-05-10T06:14:34.009Z,5195
2023-05-10T06:15:50.253Z,5259
2023-05-10T06:17:06.488Z,5304
2023-05-10T06:18:22.729Z,5399
2023-05-10T06:19:38.979Z,5385
2023-05-10T06:20:55.222Z,5434
2023-05-10T06:22:11.445Z,5489
2023-05-10T06:23:27.700Z,5499
2023-05-10T06:24:43.929Z,5531
2023-05-10T06:26:00.173Z,5575
2023-05-10T06:27:16.418Z,5531
2023-05-10T06:28:32.655Z,5557
2023-05-10T06:29:47.900Z,5635
2023-05-10T06:31:04.155Z,5621
2023-05-10T06:32:20.382Z,5593
2023-05-10T06:33:36.629Z,5534
2023-05-10T06:34:52.874Z,5524
2023-05-10T06:36:09.099Z,5543
2023-05-10T06:37:25.344Z,5569
2023-05-10T06:38:41.593Z,5583
2023-05-10T06:39:57.835Z,5655
2023-05-10T06:42:30.316Z,5511
2023-05-10T06:45:02.788Z,5559
2023-05-10T06:46:18.042Z,5517
2023-05-10T06:47:34.283Z,5507
2023-05-10T06:48:50.515Z,5450
2023-05-10T06:50:06.781Z,5368
2023-05-10T06:51:23.008Z,5357
2023-05-10T06:52:39.241Z,5337
2023-05-10T06:53:55.482Z,5191
2023-05-10T06:55:11.730Z,5201
2023-05-10T06:57:44.195Z,5217
2023-05-10T06:58:59.455Z,5212
2023-05-10T07:00:14.727Z,5156
2023-05-10T07:01:30.961Z,5113
2023-05-10T07:02:47.203Z,5123
2023-05-10T07:04:03.441Z,5098
2023-05-10T07:05:19.680Z,5081
2023-05-10T07:06:35.923Z,5026
2023-05-10T07:07:52.164Z,4988
2023-05-10T07:09:08.406Z,4994
2023-05-10T07:10:24.645Z,5016
2023-05-10T07:11:39.906Z,4999
2023-05-10T07:12:55.144Z,5036
2023-05-10T07:14:11.405Z,5061
2023-05-10T07:15:27.626Z,5094
2023-05-10T07:16:43.882Z,5112
2023-05-10T07:18:00.107Z,5140
2023-05-10T07:19:16.354Z,5196
2023-05-10T07:20:32.594Z,5197
2023-05-10T07:21:48.839Z,5162
2023-05-10T07:23:05.074Z,5226
2023-05-10T07:24:21.310Z,5245
2023-05-10T07:25:37.559Z,5263
2023-05-10T07:28:10.027Z,5315
2023-05-10T07:29:26.281Z,5236
2023-05-10T07:31:58.736Z,5276
2023-05-10T07:33:13.998Z,5327
2023-05-10T07:34:29.257Z,5254
2023-05-10T07:35:45.500Z,5302
2023-05-10T07:37:01.731Z,5312
2023-05-10T07:38:17.963Z,5272
2023-05-10T07:39:34.219Z,5284
2023-05-10T07:40:50.461Z,5351
2023-05-10T07:42:06.694Z,5388
2023-05-10T07:43:22.939Z,5391
2023-05-10T07:44:39.174Z,5443
2023-05-10T07:45:54.430Z,5451
2023-05-10T07:47:09.689Z,5436
2023-05-10T07:48:25.924Z,5366
2023-05-10T07:50:58.419Z,5280
2023-05-10T07:52:14.649Z,5191
2023-05-10T07:53:30.898Z,5248
2023-05-10T07:54:47.134Z,5184
2023-05-10T07:56:03.364Z,5177
2023-05-10T07:57:19.600Z,5134
2023-05-10T07:58:35.850Z,5051
2023-05-10T07:59:52.084Z,5094
2023-05-10T08:01:08.326Z,5065
2023-05-10T08:02:24.568Z,5104
2023-05-10T08:03:39.818Z,5067
2023-05-10T08:04:56.067Z,5028
2023-05-10T08:06:12.307Z,5045
2023-05-10T08:07:28.543Z,5050
2023-05-10T08:08:44.782Z,5062
2023-05-10T08:10:01.024Z,5095
2023-05-10T08:11:17.255Z,5107
2023-05-10T08:12:33.511Z,5201
2023-05-10T08:13:49.736Z,5224
2023-05-10T08:15:05.984Z,5270
2023-05-10T08:16:22.213Z,5271
2023-05-10T08:17:38.465Z,5263
2023-05-10T08:18:54.692Z,5298
2023-05-10T08:21:26.202Z,5537
2023-05-10T08:22:42.438Z,5521
2023-05-10T08:23:58.676Z,5612
2023-05-10T08:25:14.918Z,5766
2023-05-10T08:26:31.159Z,5736
2023-05-10T08:29:03.636Z,5816
2023-05-10T08:30:19.875Z,6002
2023-05-10T08:31:36.116Z,5831
2023-05-10T08:32:52.360Z,6140
2023-05-10T08:34:08.605Z,6074
2023-05-10T08:35:24.827Z,6358
2023-05-10T08:36:40.086Z,6171
2023-05-10T08:37:56.340Z,6135
2023-05-10T08:39:12.573Z,6504
2023-05-10T08:41:45.043Z,6632
2023-05-10T08:43:00.319Z,6759
2023-05-10T08:44:15.572Z,6531
2023-05-10T08:45:31.811Z,6604
2023-05-10T08:46:48.053Z,6185
2023-05-10T08:48:04.289Z,6343
2023-05-10T08:49:20.521Z,6659
2023-05-10T08:50:36.776Z,6724
2023-05-10T08:51:53.014Z,6614
2023-05-10T08:53:09.248Z,6412
2023-05-10T08:54:25.479Z,6445
2023-05-10T08:55:40.754Z,6754
2023-05-10T08:56:56.001Z,6945
2023-05-10T08:59:28.494Z,7029
2023-05-10T09:00:44.717Z,7002
2023-05-10T09:02:00.976Z,7031
2023-05-10T09:03:17.214Z,7070
2023-05-10T09:04:33.435Z,6850
2023-05-10T09:05:49.682Z,7362
2023-05-10T09:07:05.925Z,8279
2023-05-10T09:08:22.159Z,8370
2023-05-10T09:09:38.404Z,8559
2023-05-10T09:10:54.645Z,8653
2023-05-10T09:12:10.875Z,8473
2023-05-10T09:13:26.147Z,8586
2023-05-10T09:14:42.381Z,8787
2023-05-10T09:15:58.614Z,9352
2023-05-10T09:17:14.851Z,9349
2023-05-10T09:18:31.090Z,6846
2023-05-10T09:19:47.337Z,5898
2023-05-10T09:21:03.583Z,5904
2023-05-10T09:22:19.818Z,6446
2023-05-10T09:23:36.067Z,6332
2023-05-10T09:24:52.295Z,5436
2023-05-10T09:26:08.532Z,5093
2023-05-10T09:27:24.777Z,5450
2023-05-10T09:28:41.023Z,6124
2023-05-10T09:29:56.268Z,6394
2023-05-10T09:31:12.509Z,5769
2023-05-10T09:32:28.760Z,5169
2023-05-10T09:33:44.996Z,5834
2023-05-10T09:35:01.226Z,6570
2023-05-10T09:36:17.484Z,7148
2023-05-10T09:37:33.719Z,7639
2023-05-10T09:38:48.979Z,7888
2023-05-10T09:40:04.240Z,7364
2023-05-10T09:41:19.489Z,6706
2023-05-10T09:42:35.724Z,6300
2023-05-10T09:43:51.978Z,6626
2023-05-10T09:45:08.216Z,7708
2023-05-10T09:46:24.450Z,8471
2023-05-10T09:47:40.700Z,8348
2023-05-10T09:48:56.942Z,8213
2023-05-10T09:50:13.163Z,7738
2023-05-10T09:51:29.423Z,7728
2023-05-10T09:52:45.648Z,7995
2023-05-10T09:54:01.895Z,7619
2023-05-10T09:55:18.126Z,7115
2023-05-10T09:56:34.367Z,6980
2023-05-10T09:57:49.624Z,7126
2023-05-10T09:59:05.869Z,6785
2023-05-10T10:00:22.110Z,6204
2023-05-10T10:01:38.357Z,6556
2023-05-10T10:02:54.595Z,7174
2023-05-10T10:04:10.822Z,7915
2023-05-10T10:05:27.077Z,8000
2023-05-10T10:06:43.316Z,8568
2023-05-10T10:07:59.543Z,8591
2023-05-10T10:09:15.786Z,8396
2023-05-10T10:10:32.029Z,8375
2023-05-10T10:11:48.274Z,7933
2023-05-10T10:13:04.510Z,7471
2023-05-10T10:14:19.759Z,7082
2023-05-10T10:15:35.999Z,6845
2023-05-10T10:16:52.236Z,6820
2023-05-10T10:18:08.481Z,7201
2023-05-10T10:19:24.726Z,7815
2023-05-10T10:20:40.958Z,7490
2023-05-10T10:21:57.208Z,7515
2023-05-10T10:23:13.440Z,7496
2023-05-10T10:24:29.680Z,6978
2023-05-10T10:25:45.929Z,6824
2023-05-10T10:27:02.169Z,7012
2023-05-10T10:28:18.405Z,7256
2023-05-10T10:29:34.642Z,7568
2023-05-10T10:30:49.905Z,7924
2023-05-10T10:32:06.128Z,8336
2023-05-10T10:34:38.625Z,8949
2023-05-10T10:35:54.847Z,8847
2023-05-10T10:37:11.097Z,8813
2023-05-10T10:38:27.335Z,9367
2023-05-10T10:39:43.574Z,9352
2023-05-10T10:40:59.812Z,9641
2023-05-10T10:42:16.046Z,9524
2023-05-10T10:43:32.295Z,9335
2023-05-10T10:44:48.534Z,8982
2023-05-10T10:46:04.781Z,7909
2023-05-10T10:47:20.036Z,7906
2023-05-10T10:48:36.268Z,8478
2023-05-10T10:49:52.504Z,8203
2023-05-10T10:51:08.752Z,7240
2023-05-10T10:52:24.981Z,5782
2023-05-10T10:53:41.229Z,4962
2023-05-10T10:54:57.470Z,4845
2023-05-10T10:56:13.715Z,6093
2023-05-10T10:57:29.946Z,6847
2023-05-10T10:58:46.201Z,6902
2023-05-10T11:00:02.441Z,6349
2023-05-10T11:01:18.670Z,5465
2023-05-10T11:02:34.918Z,5049
2023-05-10T11:03:50.164Z,4726
2023-05-10T11:05:06.414Z,4722
2023-05-10T11:06:22.640Z,4091
2023-05-10T11:07:38.877Z,3863
2023-05-10T11:08:55.125Z,3852
2023-05-10T11:10:11.370Z,3780
2023-05-10T11:11:27.596Z,3725
2023-05-10T11:12:43.844Z,3742
2023-05-10T11:14:00.076Z,3758
2023-05-10T11:15:16.329Z,3891
2023-05-10T11:16:32.567Z,4129
2023-05-10T11:17:48.802Z,4313
2023-05-10T11:19:05.042Z,4335
2023-05-10T11:20:20.311Z,4136
2023-05-10T11:21:36.551Z,3899
2023-05-10T11:22:52.784Z,3833
2023-05-10T11:24:09.022Z,3960
2023-05-10T11:25:25.257Z,4098
2023-05-10T11:26:41.503Z,4139
2023-05-10T11:27:57.744Z,4143
2023-05-10T11:29:13.982Z,4067
2023-05-10T11:31:46.457Z,3842
2023-05-10T11:33:02.694Z,4013
2023-05-10T11:34:18.940Z,4199
2023-05-10T11:35:35.175Z,4553
2023-05-10T11:36:50.431Z,4774
2023-05-10T11:38:06.667Z,5045
2023-05-10T11:39:22.918Z,5620
2023-05-10T11:40:39.150Z,5928
2023-05-10T11:41:55.396Z,5813
2023-05-10T11:43:11.646Z,5894
2023-05-10T11:44:27.874Z,6086
2023-05-10T11:45:44.121Z,5975
2023-05-10T11:47:00.360Z,6073
2023-05-10T11:48:16.590Z,6708
2023-05-10T11:49:32.845Z,7087
2023-05-10T11:50:49.073Z,7234
2023-05-10T11:52:05.322Z,7536
2023-05-10T11:53:20.561Z,7367
2023-05-10T11:54:36.802Z,7004
2023-05-10T11:55:53.050Z,6490
2023-05-10T11:57:09.288Z,6363
2023-05-10T11:58:25.542Z,6508
2023-05-10T11:59:41.769Z,6815
2023-05-10T12:02:14.259Z,7343
2023-05-10T12:03:30.490Z,7030
2023-05-10T12:04:46.726Z,6837
2023-05-10T12:06:02.963Z,6905
2023-05-10T12:07:19.217Z,6736
2023-05-10T12:08:35.458Z,5983
2023-05-10T12:09:50.710Z,5443
2023-05-10T12:11:06.944Z,5234
2023-05-10T12:12:23.196Z,5922
2023-05-10T12:13:39.435Z,6703
2023-05-10T12:14:55.666Z,5962
2023-05-10T12:16:11.913Z,5314
2023-05-10T12:17:28.143Z,4706
2023-05-10T12:18:44.394Z,4311
2023-05-10T12:20:00.621Z,3893
2023-05-10T12:21:16.874Z,3597
2023-05-10T12:22:33.103Z,4049
2023-05-10T12:23:49.342Z,3932
2023-05-10T12:25:05.592Z,3468
2023-05-10T12:26:20.843Z,3344
2023-05-10T12:27:37.092Z,3348
2023-05-10T12:28:53.316Z,3124
2023-05-10T12:30:09.571Z,3089
2023-05-10T12:31:25.808Z,2678
2023-05-10T12:32:42.033Z,2430
2023-05-10T12:33:58.280Z,2614
2023-05-10T12:35:14.525Z,2571
2023-05-10T12:36:30.753Z,2528
2023-05-10T12:37:47.008Z,2364
2023-05-10T12:39:03.244Z,2354
2023-05-10T12:40:19.470Z,2462
2023-05-10T12:41:35.719Z,2644
2023-05-10T12:42:50.985Z,2907
2023-05-10T12:44:07.208Z,3112
2023-05-10T12:45:23.447Z,3292
2023-05-10T12:46:39.693Z,3329
2023-05-10T12:47:55.942Z,3311
2023-05-10T12:49:12.184Z,3188
2023-05-10T12:50:28.404Z,3050
2023-05-10T12:51:44.662Z,2915
2023-05-10T12:53:00.895Z,2916
2023-05-10T12:54:17.126Z,3057
2023-05-10T12:55:33.370Z,3149
2023-05-10T12:56:49.613Z,3211
2023-05-10T12:58:05.864Z,3192
2023-05-10T12:59:21.107Z,3124
2023-05-10T13:00:37.358Z,3096
2023-05-10T13:03:09.835Z,3020
2023-05-10T13:04:26.064Z,3007
2023-05-10T13:05:42.316Z,3088
2023-05-10T13:06:58.543Z,3267
2023-05-10T13:08:14.790Z,3489
2023-05-10T13:09:31.025Z,3566
2023-05-10T13:10:47.263Z,3694
2023-05-10T13:12:03.512Z,3776
2023-05-10T13:13:19.738Z,3933
2023-05-10T13:14:35.986Z,4065
2023-05-10T13:15:51.235Z,4083
2023-05-10T13:17:07.486Z,4010
2023-05-10T13:18:23.724Z,3941
2023-05-10T13:19:39.960Z,3954
2023-05-10T13:20:56.205Z,3993
2023-05-10T13:22:12.437Z,4079
2023-05-10T13:23:28.689Z,4211
2023-05-10T13:24:44.919Z,4260
2023-05-10T13:26:01.172Z,4246
2023-05-10T13:27:17.404Z,4252
2023-05-10T13:28:33.647Z,4279
2023-05-10T13:29:49.892Z,4242
2023-05-10T13:31:06.116Z,4240
2023-05-10T13:32:21.384Z,4290
2023-05-10T13:33:37.618Z,4290
2023-05-10T13:34:53.860Z,4292
2023-05-10T13:36:10.097Z,4245
2023-05-10T13:37:26.344Z,4201
2023-05-10T13:38:42.573Z,4241
2023-05-10T13:39:58.814Z,4313
2023-05-10T13:41:15.063Z,4463
2023-05-10T13:43:47.548Z,4439
2023-05-10T13:45:03.770Z,4198
2023-05-10T13:46:20.023Z,4241
2023-05-10T13:48:52.505Z,4577
2023-05-10T13:50:07.751Z,4682
2023-05-10T13:51:23.992Z,4779
2023-05-10T13:52:40.231Z,5145
2023-05-10T13:53:55.499Z,5559
2023-05-10T13:55:11.730Z,5714
2023-05-10T13:56:27.983Z,5750
2023-05-10T13:57:44.205Z,5849
2023-05-10T13:59:00.460Z,5949
2023-05-10T14:00:16.704Z,5831
2023-05-10T14:01:32.938Z,5744
2023-05-10T14:02:49.166Z,5684
2023-05-10T14:04:05.421Z,5547
2023-05-10T14:05:21.648Z,5413
2023-05-10T14:06:37.884Z,5509
2023-05-10T14:07:54.131Z,5641
2023-05-10T14:09:10.378Z,5568
2023-05-10T14:10:25.639Z,5372
2023-05-10T14:11:41.862Z,5366
2023-05-10T14:12:58.118Z,5389
2023-05-10T14:14:14.345Z,5460
2023-05-10T14:15:30.591Z,5871
2023-05-10T14:16:46.833Z,6043
2023-05-10T14:19:19.303Z,6014
2023-05-10T14:20:35.549Z,6020
2023-05-10T14:21:51.787Z,6291
2023-05-10T14:23:08.037Z,6513
2023-05-10T14:24:24.266Z,6839
2023-05-10T14:25:40.503Z,6948
2023-05-10T14:26:55.757Z,7133
2023-05-10T14:28:11.999Z,6685
2023-05-10T14:29:28.246Z,6040
2023-05-10T14:30:44.485Z,6597
2023-05-10T14:32:00.724Z,5340
2023-05-10T14:33:16.961Z,6085
2023-05-10T14:34:33.194Z,6627
2023-05-10T14:35:49.440Z,6846
2023-05-10T14:37:05.676Z,6178
2023-05-10T14:38:21.917Z,5288
2023-05-10T14:39:38.166Z,5199
2023-05-10T14:40:54.408Z,4221
2023-05-10T14:42:10.649Z,4221
2023-05-10T14:43:25.899Z,4945
2023-05-10T14:44:42.133Z,5093
2023-05-10T14:45:58.372Z,5527
2023-05-10T14:47:14.613Z,5304
2023-05-10T14:48:30.856Z,4323
2023-05-10T14:49:47.096Z,4940
2023-05-10T14:51:03.336Z,5348
2023-05-10T14:52:19.575Z,5516
2023-05-10T14:53:35.819Z,5299
2023-05-10T14:54:52.058Z,5361
2023-05-10T14:56:08.303Z,5298
2023-05-10T14:57:24.539Z,5296
2023-05-10T14:58:40.769Z,5267
2023-05-10T14:59:56.030Z,5224
2023-05-10T15:01:12.265Z,4990
2023-05-10T15:02:28.510Z,4726
2023-05-10T15:05:00.989Z,4495
2023-05-10T15:06:17.230Z,4406
2023-05-10T15:07:33.465Z,4418
2023-05-10T15:08:49.714Z,4499
2023-05-10T15:10:05.962Z,4607
2023-05-10T15:11:22.195Z,4534
2023-05-10T15:12:38.427Z,4500
2023-05-10T15:13:54.678Z,4399
2023-05-10T15:15:10.907Z,4357
2023-05-10T15:16:26.159Z,4375
2023-05-10T15:17:42.402Z,4505
2023-05-10T15:20:14.878Z,4658
2023-05-10T15:21:31.130Z,4654
2023-05-10T15:22:47.375Z,4616
2023-05-10T15:24:03.612Z,4819
2023-05-10T15:25:19.852Z,4680
2023-05-10T15:26:36.097Z,4315
2023-05-10T15:27:52.327Z,4444
2023-05-10T15:29:08.564Z,4823
2023-05-10T15:30:24.816Z,4748
2023-05-10T15:31:41.041Z,3599
2023-05-10T15:32:56.294Z,3591
2023-05-10T15:35:28.772Z,3564
2023-05-10T15:38:01.259Z,3777
2023-05-10T15:39:16.534Z,3879
2023-05-10T15:40:31.782Z,3819
2023-05-10T15:41:48.024Z,3840
2023-05-10T15:43:04.256Z,3805
2023-05-10T15:44:20.498Z,3839
2023-05-10T15:45:36.744Z,3892
2023-05-10T15:46:52.968Z,3902
2023-05-10T15:48:09.227Z,3899
2023-05-10T15:49:25.452Z,3859
2023-05-10T15:50:41.703Z,3731
2023-05-10T15:51:56.951Z,3697
2023-05-10T15:53:12.205Z,3715
2023-05-10T15:54:28.457Z,3706
2023-05-10T15:55:44.692Z,3267
2023-05-10T15:57:00.936Z,3071
2023-05-10T15:58:17.170Z,2898
2023-05-10T15:59:33.413Z,3234
2023-05-10T16:00:49.657Z,3333
2023-05-10T16:02:05.899Z,3455
2023-05-10T16:03:22.134Z,3507
2023-05-10T16:04:38.366Z,3494
2023-05-10T16:05:54.623Z,3437
2023-05-10T16:07:10.856Z,3341
2023-05-10T16:08:27.102Z,3316
2023-05-10T16:09:42.356Z,3208
2023-05-10T16:10:58.593Z,3099
2023-05-10T16:13:31.078Z,3070
2023-05-10T16:14:47.319Z,3102
2023-05-10T16:16:03.554Z,3026
2023-05-10T16:17:19.790Z,2936
2023-05-10T16:18:36.025Z,2892
2023-05-10T16:21:08.507Z,2727
2023-05-10T16:22:24.743Z,2672
2023-05-10T16:23:40.996Z,2647
2023-05-10T16:24:57.233Z,2654
2023-05-10T16:26:12.495Z,2631
2023-05-10T16:28:44.976Z,2594
2023-05-10T16:30:00.219Z,2711
2023-05-10T16:31:15.494Z,2851
2023-05-10T16:32:31.728Z,2971
2023-05-10T16:33:47.963Z,3060
2023-05-10T16:35:04.201Z,3105
2023-05-10T16:36:20.448Z,3095
2023-05-10T16:37:36.691Z,3058
2023-05-10T16:38:52.924Z,2996
2023-05-10T16:40:09.161Z,2905
2023-05-10T16:41:25.408Z,2866
2023-05-10T16:42:40.670Z,2843
2023-05-10T16:43:55.918Z,2817
2023-05-10T16:45:12.151Z,2826
2023-05-10T16:46:28.398Z,2828
2023-05-10T16:47:44.632Z,2826
2023-05-10T16:49:00.868Z,2888
2023-05-10T16:50:17.113Z,2967
2023-05-10T16:51:33.365Z,3049
2023-05-10T16:52:49.588Z,3121
2023-05-10T16:54:05.838Z,3202
2023-05-10T16:55:22.073Z,3285
2023-05-10T16:56:38.309Z,3257
2023-05-10T16:57:54.563Z,3306
2023-05-10T16:59:10.803Z,3396
2023-05-10T17:00:26.062Z,3450
2023-05-10T17:01:42.302Z,3466
2023-05-10T17:02:58.537Z,3438
2023-05-10T17:04:14.766Z,3376
2023-05-10T17:05:31.017Z,3259
2023-05-10T17:06:47.251Z,3116
2023-05-10T17:08:03.494Z,2982
2023-05-10T17:09:19.740Z,2870
2023-05-10T17:10:35.977Z,2799
2023-05-10T17:11:52.210Z,2739
2023-05-10T17:13:08.451Z,2668
2023-05-10T17:14:24.693Z,2603
2023-05-10T17:15:40.931Z,2506
2023-05-10T17:16:56.189Z,2423
2023-05-10T17:18:12.424Z,2355
2023-05-10T17:19:28.662Z,2252
2023-05-10T17:20:44.903Z,2144
2023-05-10T17:22:01.140Z,2067
2023-05-10T17:23:17.397Z,1997
2023-05-10T17:24:33.636Z,1949
2023-05-10T17:25:49.869Z,1895
2023-05-10T17:27:06.117Z,1835
2023-05-10T17:28:22.342Z,1778
2023-05-10T17:29:38.595Z,1718
2023-05-10T17:32:11.074Z,1502
2023-05-10T17:33:26.318Z,1383
2023-05-10T17:34:42.565Z,1268
2023-05-10T17:35:58.799Z,1156
2023-05-10T17:37:15.019Z,1058
2023-05-10T17:38:31.256Z,998
2023-05-10T17:39:47.499Z,938
2023-05-10T17:41:03.745Z,884
2023-05-10T17:42:19.968Z,828
2023-05-10T17:43:36.226Z,797
2023-05-10T17:44:52.456Z,767
2023-05-10T17:46:08.692Z,725
2023-05-10T17:47:24.936Z,690
2023-05-10T17:48:41.186Z,654
2023-05-10T17:49:56.436Z,630
2023-05-10T17:51:12.670Z,626
2023-05-10T17:52:28.918Z,616
2023-05-10T17:53:45.160Z,598
2023-05-10T17:55:01.400Z,574
2023-05-10T17:56:17.626Z,564
2023-05-10T17:57:33.878Z,539
2023-05-10T17:58:50.109Z,533
2023-05-10T18:00:06.361Z,515
2023-05-10T18:01:22.588Z,478
2023-05-10T18:02:38.831Z,453
2023-05-10T18:03:55.084Z,426
2023-05-10T18:05:11.311Z,406
2023-05-10T18:06:26.566Z,373
2023-05-10T18:07:42.809Z,355
2023-05-10T18:08:58.078Z,349
2023-05-10T18:10:14.300Z,335
2023-05-10T18:11:30.551Z,333
2023-05-10T18:12:46.787Z,316